sensor_id;sensor_type;location;lat;lon;timestamp;P1;durP1;ratioP1;P2;durP2;ratioP2
16039;SDS011;8124;48.634;8.120;2024-01-30T00:01:33;40.40;;;34.92;;
16039;SDS011;8124;48.634;8.120;2024-01-30T00:06:36;40.35;;;35.03;;
16039;SDS011;8124;48.634;8.120;2024-01-30T00:11:40;40.28;;;34.85;;
16039;SDS011;8124;48.634;8.120;2024-01-30T00:16:43;42.45;;;34.38;;
16039;SDS011;8124;48.634;8.120;2024-01-30T00:21:46;41.47;;;34.72;;
16039;SDS011;8124;48.634;8.120;2024-01-30T00:26:51;42.08;;;35.03;;
16039;SDS011;8124;48.634;8.120;2024-01-30T00:31:54;38.47;;;34.17;;
16039;SDS011;8124;48.634;8.120;2024-01-30T00:36:57;40.67;;;34.33;;
16039;SDS011;8124;48.634;8.120;2024-01-30T00:42:01;39.63;;;34.50;;
16039;SDS011;8124;48.634;8.120;2024-01-30T00:47:04;39.58;;;34.20;;
16039;SDS011;8124;48.634;8.120;2024-01-30T00:52:07;39.90;;;34.60;;
16039;SDS011;8124;48.634;8.120;2024-01-30T00:57:12;38.80;;;34.13;;
16039;SDS011;8124;48.634;8.120;2024-01-30T01:02:15;41.35;;;34.08;;
16039;SDS011;8124;48.634;8.120;2024-01-30T01:07:18;39.60;;;33.75;;
16039;SDS011;8124;48.634;8.120;2024-01-30T01:12:23;40.33;;;34.78;;
16039;SDS011;8124;48.634;8.120;2024-01-30T01:17:26;44.33;;;38.00;;
16039;SDS011;8124;48.634;8.120;2024-01-30T01:22:29;40.72;;;34.65;;
16039;SDS011;8124;48.634;8.120;2024-01-30T01:27:34;42.10;;;34.80;;
16039;SDS011;8124;48.634;8.120;2024-01-30T01:32:41;40.25;;;34.28;;
16039;SDS011;8124;48.634;8.120;2024-01-30T01:37:51;38.47;;;33.95;;
16039;SDS011;8124;48.634;8.120;2024-01-30T01:42:57;39.92;;;34.70;;
16039;SDS011;8124;48.634;8.120;2024-01-30T01:48:00;38.28;;;33.80;;
16039;SDS011;8124;48.634;8.120;2024-01-30T01:53:04;39.28;;;33.83;;
16039;SDS011;8124;48.634;8.120;2024-01-30T01:58:11;41.13;;;34.83;;
16039;SDS011;8124;48.634;8.120;2024-01-30T02:03:15;40.40;;;33.85;;
16039;SDS011;8124;48.634;8.120;2024-01-30T02:08:23;39.75;;;33.78;;
16039;SDS011;8124;48.634;8.120;2024-01-30T02:13:27;40.85;;;34.83;;
16039;SDS011;8124;48.634;8.120;2024-01-30T02:18:30;38.22;;;33.38;;
16039;SDS011;8124;48.634;8.120;2024-01-30T02:23:35;40.17;;;34.00;;
16039;SDS011;8124;48.634;8.120;2024-01-30T02:28:38;41.45;;;34.38;;
16039;SDS011;8124;48.634;8.120;2024-01-30T02:33:41;40.05;;;33.88;;
16039;SDS011;8124;48.634;8.120;2024-01-30T02:38:46;40.63;;;34.42;;
16039;SDS011;8124;48.634;8.120;2024-01-30T02:43:49;42.17;;;34.88;;
16039;SDS011;8124;48.634;8.120;2024-01-30T02:48:52;40.95;;;34.55;;
16039;SDS011;8124;48.634;8.120;2024-01-30T02:53:56;39.65;;;34.45;;
16039;SDS011;8124;48.634;8.120;2024-01-30T02:58:59;41.35;;;35.20;;
16039;SDS011;8124;48.634;8.120;2024-01-30T03:04:02;40.55;;;34.88;;
16039;SDS011;8124;48.634;8.120;2024-01-30T03:09:06;38.78;;;33.78;;
16039;SDS011;8124;48.634;8.120;2024-01-30T03:14:11;41.70;;;33.80;;
16039;SDS011;8124;48.634;8.120;2024-01-30T03:19:14;41.00;;;34.10;;
16039;SDS011;8124;48.634;8.120;2024-01-30T03:24:18;38.17;;;33.78;;
16039;SDS011;8124;48.634;8.120;2024-01-30T03:29:21;38.45;;;33.92;;
16039;SDS011;8124;48.634;8.120;2024-01-30T03:34:24;40.22;;;33.80;;
16039;SDS011;8124;48.634;8.120;2024-01-30T03:39:29;40.50;;;34.42;;
16039;SDS011;8124;48.634;8.120;2024-01-30T03:44:33;39.72;;;34.78;;
16039;SDS011;8124;48.634;8.120;2024-01-30T03:49:35;38.25;;;33.88;;
16039;SDS011;8124;48.634;8.120;2024-01-30T03:54:40;39.88;;;34.58;;
16039;SDS011;8124;48.634;8.120;2024-01-30T03:59:43;40.08;;;34.72;;
16039;SDS011;8124;48.634;8.120;2024-01-30T04:04:46;41.38;;;35.42;;
16039;SDS011;8124;48.634;8.120;2024-01-30T04:09:50;39.75;;;34.08;;
16039;SDS011;8124;48.634;8.120;2024-01-30T04:14:53;39.63;;;34.90;;
16039;SDS011;8124;48.634;8.120;2024-01-30T04:19:56;38.63;;;34.05;;
16039;SDS011;8124;48.634;8.120;2024-01-30T04:25:01;41.38;;;34.55;;
16039;SDS011;8124;48.634;8.120;2024-01-30T04:30:04;40.22;;;33.50;;
16039;SDS011;8124;48.634;8.120;2024-01-30T04:35:08;40.20;;;33.83;;
16039;SDS011;8124;48.634;8.120;2024-01-30T04:40:14;40.08;;;34.38;;
16039;SDS011;8124;48.634;8.120;2024-01-30T04:45:17;40.90;;;34.78;;
16039;SDS011;8124;48.634;8.120;2024-01-30T04:50:20;40.40;;;34.67;;
16039;SDS011;8124;48.634;8.120;2024-01-30T04:55:24;47.67;;;38.83;;
16039;SDS011;8124;48.634;8.120;2024-01-30T05:00:27;45.83;;;38.53;;
16039;SDS011;8124;48.634;8.120;2024-01-30T05:05:30;39.33;;;34.72;;
16039;SDS011;8124;48.634;8.120;2024-01-30T05:10:34;39.63;;;33.72;;
16039;SDS011;8124;48.634;8.120;2024-01-30T05:15:37;38.72;;;33.53;;
16039;SDS011;8124;48.634;8.120;2024-01-30T05:20:40;42.95;;;36.92;;
16039;SDS011;8124;48.634;8.120;2024-01-30T05:25:44;42.03;;;37.00;;
16039;SDS011;8124;48.634;8.120;2024-01-30T05:30:47;42.67;;;36.42;;
16039;SDS011;8124;48.634;8.120;2024-01-30T05:35:51;40.35;;;34.40;;
16039;SDS011;8124;48.634;8.120;2024-01-30T05:40:57;39.08;;;34.80;;
16039;SDS011;8124;48.634;8.120;2024-01-30T05:46:00;42.45;;;35.00;;
16039;SDS011;8124;48.634;8.120;2024-01-30T05:51:03;39.70;;;34.65;;
16039;SDS011;8124;48.634;8.120;2024-01-30T05:56:08;41.08;;;35.50;;
16039;SDS011;8124;48.634;8.120;2024-01-30T06:01:11;40.28;;;35.15;;
16039;SDS011;8124;48.634;8.120;2024-01-30T06:06:14;47.13;;;38.60;;
16039;SDS011;8124;48.634;8.120;2024-01-30T06:11:18;41.40;;;35.35;;
16039;SDS011;8124;48.634;8.120;2024-01-30T06:16:21;40.60;;;34.75;;
16039;SDS011;8124;48.634;8.120;2024-01-30T06:21:24;42.08;;;35.25;;
16039;SDS011;8124;48.634;8.120;2024-01-30T06:26:28;40.60;;;34.92;;
16039;SDS011;8124;48.634;8.120;2024-01-30T06:31:31;43.78;;;35.72;;
16039;SDS011;8124;48.634;8.120;2024-01-30T06:36:34;44.78;;;37.25;;
16039;SDS011;8124;48.634;8.120;2024-01-30T06:41:39;48.22;;;40.78;;
16039;SDS011;8124;48.634;8.120;2024-01-30T06:46:41;45.97;;;37.58;;
16039;SDS011;8124;48.634;8.120;2024-01-30T06:51:44;44.78;;;36.22;;
16039;SDS011;8124;48.634;8.120;2024-01-30T06:56:49;45.35;;;36.85;;
16039;SDS011;8124;48.634;8.120;2024-01-30T07:01:52;42.53;;;35.72;;
16039;SDS011;8124;48.634;8.120;2024-01-30T07:06:55;43.35;;;35.90;;
16039;SDS011;8124;48.634;8.120;2024-01-30T07:12:00;42.05;;;35.40;;
16039;SDS011;8124;48.634;8.120;2024-01-30T07:17:03;44.20;;;35.95;;
16039;SDS011;8124;48.634;8.120;2024-01-30T07:22:07;59.35;;;46.40;;
16039;SDS011;8124;48.634;8.120;2024-01-30T07:27:11;45.63;;;37.63;;
16039;SDS011;8124;48.634;8.120;2024-01-30T07:32:14;44.97;;;35.55;;
16039;SDS011;8124;48.634;8.120;2024-01-30T07:37:17;41.15;;;35.08;;
16039;SDS011;8124;48.634;8.120;2024-01-30T07:42:22;45.20;;;37.33;;
16039;SDS011;8124;48.634;8.120;2024-01-30T07:47:25;48.75;;;39.97;;
16039;SDS011;8124;48.634;8.120;2024-01-30T07:52:28;45.33;;;38.17;;
16039;SDS011;8124;48.634;8.120;2024-01-30T07:57:32;44.17;;;36.60;;
16039;SDS011;8124;48.634;8.120;2024-01-30T08:02:36;46.00;;;37.53;;
16039;SDS011;8124;48.634;8.120;2024-01-30T08:07:38;48.47;;;37.70;;
16039;SDS011;8124;48.634;8.120;2024-01-30T08:12:43;43.97;;;37.08;;
16039;SDS011;8124;48.634;8.120;2024-01-30T08:17:46;41.85;;;36.17;;
16039;SDS011;8124;48.634;8.120;2024-01-30T08:22:49;44.13;;;35.97;;
16039;SDS011;8124;48.634;8.120;2024-01-30T08:27:53;43.03;;;36.00;;
16039;SDS011;8124;48.634;8.120;2024-01-30T08:32:56;42.47;;;35.97;;
16039;SDS011;8124;48.634;8.120;2024-01-30T08:37:59;42.42;;;36.50;;
16039;SDS011;8124;48.634;8.120;2024-01-30T08:43:04;43.97;;;36.78;;
16039;SDS011;8124;48.634;8.120;2024-01-30T08:48:07;42.10;;;35.95;;
16039;SDS011;8124;48.634;8.120;2024-01-30T08:53:10;41.47;;;35.95;;
16039;SDS011;8124;48.634;8.120;2024-01-30T08:58:15;45.55;;;37.63;;
16039;SDS011;8124;48.634;8.120;2024-01-30T09:03:19;44.13;;;36.60;;
16039;SDS011;8124;48.634;8.120;2024-01-30T09:08:22;45.78;;;37.08;;
16039;SDS011;8124;48.634;8.120;2024-01-30T09:13:26;47.63;;;39.00;;
16039;SDS011;8124;48.634;8.120;2024-01-30T09:18:30;45.92;;;36.88;;
16039;SDS011;8124;48.634;8.120;2024-01-30T09:23:33;42.40;;;35.85;;
16039;SDS011;8124;48.634;8.120;2024-01-30T09:28:37;41.53;;;35.78;;
16039;SDS011;8124;48.634;8.120;2024-01-30T09:33:40;43.55;;;36.17;;
16039;SDS011;8124;48.634;8.120;2024-01-30T09:38:45;42.13;;;36.78;;
16039;SDS011;8124;48.634;8.120;2024-01-30T09:43:50;44.55;;;37.55;;
16039;SDS011;8124;48.634;8.120;2024-01-30T09:48:53;46.70;;;37.80;;
16039;SDS011;8124;48.634;8.120;2024-01-30T09:53:59;44.42;;;37.33;;
16039;SDS011;8124;48.634;8.120;2024-01-30T09:59:03;44.35;;;37.22;;
16039;SDS011;8124;48.634;8.120;2024-01-30T10:04:06;47.42;;;37.75;;
16039;SDS011;8124;48.634;8.120;2024-01-30T10:09:10;47.17;;;39.05;;
16039;SDS011;8124;48.634;8.120;2024-01-30T10:14:15;47.25;;;39.65;;
16039;SDS011;8124;48.634;8.120;2024-01-30T10:19:18;44.08;;;38.08;;
16039;SDS011;8124;48.634;8.120;2024-01-30T10:24:23;48.17;;;39.08;;
16039;SDS011;8124;48.634;8.120;2024-01-30T10:29:28;45.10;;;38.42;;
16039;SDS011;8124;48.634;8.120;2024-01-30T10:34:31;50.83;;;38.83;;
16039;SDS011;8124;48.634;8.120;2024-01-30T10:39:36;47.95;;;39.10;;
16039;SDS011;8124;48.634;8.120;2024-01-30T10:44:46;48.35;;;39.17;;
16039;SDS011;8124;48.634;8.120;2024-01-30T10:49:59;46.90;;;39.35;;
16039;SDS011;8124;48.634;8.120;2024-01-30T10:55:04;46.80;;;39.72;;
16039;SDS011;8124;48.634;8.120;2024-01-30T11:00:10;47.03;;;39.28;;
16039;SDS011;8124;48.634;8.120;2024-01-30T11:05:23;46.13;;;39.00;;
16039;SDS011;8124;48.634;8.120;2024-01-30T11:10:30;51.45;;;40.08;;
16039;SDS011;8124;48.634;8.120;2024-01-30T11:15:37;48.08;;;39.58;;
16039;SDS011;8124;48.634;8.120;2024-01-30T11:20:40;48.67;;;39.25;;
16039;SDS011;8124;48.634;8.120;2024-01-30T11:25:51;50.40;;;41.10;;
16039;SDS011;8124;48.634;8.120;2024-01-30T11:31:03;52.08;;;40.67;;
16039;SDS011;8124;48.634;8.120;2024-01-30T11:36:08;52.10;;;41.33;;
16039;SDS011;8124;48.634;8.120;2024-01-30T11:41:12;53.67;;;41.78;;
16039;SDS011;8124;48.634;8.120;2024-01-30T11:46:17;47.63;;;40.05;;
16039;SDS011;8124;48.634;8.120;2024-01-30T11:51:20;46.60;;;38.97;;
16039;SDS011;8124;48.634;8.120;2024-01-30T11:56:24;46.83;;;37.70;;
16039;SDS011;8124;48.634;8.120;2024-01-30T12:01:29;48.22;;;39.65;;
16039;SDS011;8124;48.634;8.120;2024-01-30T12:06:34;52.15;;;39.38;;
16039;SDS011;8124;48.634;8.120;2024-01-30T12:11:43;45.92;;;38.28;;
16039;SDS011;8124;48.634;8.120;2024-01-30T12:16:49;47.47;;;38.00;;
16039;SDS011;8124;48.634;8.120;2024-01-30T12:21:56;45.83;;;38.38;;
16039;SDS011;8124;48.634;8.120;2024-01-30T12:27:00;46.88;;;36.65;;
16039;SDS011;8124;48.634;8.120;2024-01-30T12:32:05;49.08;;;37.47;;
16039;SDS011;8124;48.634;8.120;2024-01-30T12:37:08;45.63;;;37.05;;
16039;SDS011;8124;48.634;8.120;2024-01-30T12:42:13;45.35;;;37.25;;
16039;SDS011;8124;48.634;8.120;2024-01-30T12:47:17;45.75;;;37.30;;
16039;SDS011;8124;48.634;8.120;2024-01-30T12:52:20;46.38;;;37.25;;
16039;SDS011;8124;48.634;8.120;2024-01-30T12:57:24;59.80;;;41.97;;
16039;SDS011;8124;48.634;8.120;2024-01-30T13:02:28;45.40;;;38.08;;
16039;SDS011;8124;48.634;8.120;2024-01-30T13:07:36;51.95;;;39.25;;
16039;SDS011;8124;48.634;8.120;2024-01-30T13:12:39;44.35;;;37.22;;
16039;SDS011;8124;48.634;8.120;2024-01-30T13:17:43;45.95;;;37.35;;
16039;SDS011;8124;48.634;8.120;2024-01-30T13:22:48;45.20;;;37.88;;
16039;SDS011;8124;48.634;8.120;2024-01-30T13:27:51;44.97;;;36.95;;
16039;SDS011;8124;48.634;8.120;2024-01-30T13:32:56;44.50;;;36.75;;
16039;SDS011;8124;48.634;8.120;2024-01-30T13:38:00;47.75;;;37.60;;
16039;SDS011;8124;48.634;8.120;2024-01-30T13:43:03;46.42;;;37.22;;
16039;SDS011;8124;48.634;8.120;2024-01-30T13:48:07;48.58;;;38.28;;
16039;SDS011;8124;48.634;8.120;2024-01-30T13:53:10;44.33;;;37.42;;
16039;SDS011;8124;48.634;8.120;2024-01-30T13:58:16;44.40;;;37.45;;
16039;SDS011;8124;48.634;8.120;2024-01-30T14:03:20;43.88;;;36.80;;
16039;SDS011;8124;48.634;8.120;2024-01-30T14:08:23;45.45;;;36.97;;
16039;SDS011;8124;48.634;8.120;2024-01-30T14:13:29;48.47;;;38.42;;
16039;SDS011;8124;48.634;8.120;2024-01-30T14:18:35;44.33;;;36.78;;
16039;SDS011;8124;48.634;8.120;2024-01-30T14:23:38;44.08;;;36.28;;
16039;SDS011;8124;48.634;8.120;2024-01-30T14:28:41;43.40;;;36.58;;
16039;SDS011;8124;48.634;8.120;2024-01-30T14:33:46;44.08;;;35.97;;
16039;SDS011;8124;48.634;8.120;2024-01-30T14:38:49;43.60;;;36.40;;
16039;SDS011;8124;48.634;8.120;2024-01-30T14:43:53;66.97;;;38.35;;
16039;SDS011;8124;48.634;8.120;2024-01-30T14:48:57;47.20;;;36.13;;
16039;SDS011;8124;48.634;8.120;2024-01-30T14:54:00;43.55;;;36.63;;
16039;SDS011;8124;48.634;8.120;2024-01-30T14:59:03;43.20;;;36.15;;
16039;SDS011;8124;48.634;8.120;2024-01-30T15:04:08;51.85;;;36.88;;
16039;SDS011;8124;48.634;8.120;2024-01-30T15:09:11;50.40;;;37.15;;
16039;SDS011;8124;48.634;8.120;2024-01-30T15:14:16;48.63;;;37.30;;
16039;SDS011;8124;48.634;8.120;2024-01-30T15:19:20;50.50;;;38.53;;
16039;SDS011;8124;48.634;8.120;2024-01-30T15:24:26;49.53;;;38.85;;
16039;SDS011;8124;48.634;8.120;2024-01-30T15:29:32;48.03;;;37.15;;
16039;SDS011;8124;48.634;8.120;2024-01-30T15:34:40;46.22;;;37.78;;
16039;SDS011;8124;48.634;8.120;2024-01-30T15:39:43;60.08;;;43.38;;
16039;SDS011;8124;48.634;8.120;2024-01-30T15:44:46;49.22;;;39.50;;
16039;SDS011;8124;48.634;8.120;2024-01-30T15:49:51;51.35;;;41.05;;
16039;SDS011;8124;48.634;8.120;2024-01-30T15:54:56;49.58;;;40.42;;
16039;SDS011;8124;48.634;8.120;2024-01-30T16:00:00;47.88;;;38.10;;
16039;SDS011;8124;48.634;8.120;2024-01-30T16:05:13;48.50;;;39.08;;
16039;SDS011;8124;48.634;8.120;2024-01-30T16:10:18;44.50;;;37.38;;
16039;SDS011;8124;48.634;8.120;2024-01-30T16:15:21;44.97;;;38.13;;
16039;SDS011;8124;48.634;8.120;2024-01-30T16:20:27;44.05;;;37.78;;
16039;SDS011;8124;48.634;8.120;2024-01-30T16:25:30;44.38;;;37.20;;
16039;SDS011;8124;48.634;8.120;2024-01-30T16:30:33;47.60;;;39.17;;
16039;SDS011;8124;48.634;8.120;2024-01-30T16:35:38;47.63;;;36.83;;
16039;SDS011;8124;48.634;8.120;2024-01-30T16:40:47;45.13;;;38.15;;
16039;SDS011;8124;48.634;8.120;2024-01-30T16:45:51;44.97;;;37.35;;
16039;SDS011;8124;48.634;8.120;2024-01-30T16:50:55;43.35;;;36.88;;
16039;SDS011;8124;48.634;8.120;2024-01-30T16:55:58;45.13;;;38.35;;
16039;SDS011;8124;48.634;8.120;2024-01-30T17:01:02;43.83;;;37.17;;
16039;SDS011;8124;48.634;8.120;2024-01-30T17:06:06;44.28;;;36.92;;
16039;SDS011;8124;48.634;8.120;2024-01-30T17:11:13;44.15;;;36.83;;
16039;SDS011;8124;48.634;8.120;2024-01-30T17:16:16;47.58;;;37.42;;
16039;SDS011;8124;48.634;8.120;2024-01-30T17:21:24;46.63;;;37.63;;
16039;SDS011;8124;48.634;8.120;2024-01-30T17:26:27;51.22;;;39.35;;
16039;SDS011;8124;48.634;8.120;2024-01-30T17:31:32;50.42;;;38.55;;
16039;SDS011;8124;48.634;8.120;2024-01-30T17:36:36;48.10;;;38.45;;
16039;SDS011;8124;48.634;8.120;2024-01-30T17:41:39;51.33;;;42.87;;
16039;SDS011;8124;48.634;8.120;2024-01-30T17:46:42;47.83;;;38.55;;
16039;SDS011;8124;48.634;8.120;2024-01-30T17:51:46;45.80;;;37.30;;
16039;SDS011;8124;48.634;8.120;2024-01-30T17:56:49;43.20;;;36.95;;
16039;SDS011;8124;48.634;8.120;2024-01-30T18:01:52;44.95;;;37.30;;
16039;SDS011;8124;48.634;8.120;2024-01-30T18:06:57;44.42;;;37.30;;
16039;SDS011;8124;48.634;8.120;2024-01-30T18:12:00;45.97;;;38.45;;
16039;SDS011;8124;48.634;8.120;2024-01-30T18:17:04;43.38;;;37.40;;
16039;SDS011;8124;48.634;8.120;2024-01-30T18:22:08;48.00;;;40.67;;
16039;SDS011;8124;48.634;8.120;2024-01-30T18:27:11;47.10;;;38.45;;
16039;SDS011;8124;48.634;8.120;2024-01-30T18:32:14;44.85;;;37.75;;
16039;SDS011;8124;48.634;8.120;2024-01-30T18:37:18;43.95;;;37.20;;
16039;SDS011;8124;48.634;8.120;2024-01-30T18:42:22;42.53;;;36.50;;
16039;SDS011;8124;48.634;8.120;2024-01-30T18:47:24;44.10;;;36.85;;
16039;SDS011;8124;48.634;8.120;2024-01-30T18:52:29;43.28;;;36.90;;
16039;SDS011;8124;48.634;8.120;2024-01-30T18:57:32;42.47;;;36.60;;
16039;SDS011;8124;48.634;8.120;2024-01-30T19:02:37;43.55;;;36.55;;
16039;SDS011;8124;48.634;8.120;2024-01-30T19:07:41;44.22;;;36.50;;
16039;SDS011;8124;48.634;8.120;2024-01-30T19:12:44;44.28;;;36.40;;
16039;SDS011;8124;48.634;8.120;2024-01-30T19:17:48;43.63;;;36.22;;
16039;SDS011;8124;48.634;8.120;2024-01-30T19:22:53;42.72;;;36.30;;
16039;SDS011;8124;48.634;8.120;2024-01-30T19:27:58;42.65;;;36.20;;
16039;SDS011;8124;48.634;8.120;2024-01-30T19:33:01;42.22;;;36.10;;
16039;SDS011;8124;48.634;8.120;2024-01-30T19:38:05;44.30;;;37.20;;
16039;SDS011;8124;48.634;8.120;2024-01-30T19:43:09;41.47;;;35.90;;
16039;SDS011;8124;48.634;8.120;2024-01-30T19:48:12;42.83;;;36.25;;
16039;SDS011;8124;48.634;8.120;2024-01-30T19:53:18;43.20;;;36.22;;
16039;SDS011;8124;48.634;8.120;2024-01-30T19:58:22;44.85;;;36.25;;
16039;SDS011;8124;48.634;8.120;2024-01-30T20:03:25;44.00;;;35.92;;
16039;SDS011;8124;48.634;8.120;2024-01-30T20:08:29;42.22;;;36.55;;
16039;SDS011;8124;48.634;8.120;2024-01-30T20:13:34;43.42;;;36.75;;
16039;SDS011;8124;48.634;8.120;2024-01-30T20:18:41;43.47;;;36.60;;
16039;SDS011;8124;48.634;8.120;2024-01-30T20:23:45;44.92;;;37.60;;
16039;SDS011;8124;48.634;8.120;2024-01-30T20:28:50;45.35;;;38.00;;
16039;SDS011;8124;48.634;8.120;2024-01-30T20:33:55;44.05;;;37.15;;
16039;SDS011;8124;48.634;8.120;2024-01-30T20:39:00;45.13;;;38.10;;
16039;SDS011;8124;48.634;8.120;2024-01-30T20:44:04;44.83;;;37.83;;
16039;SDS011;8124;48.634;8.120;2024-01-30T20:49:08;48.97;;;40.90;;
16039;SDS011;8124;48.634;8.120;2024-01-30T20:54:18;53.00;;;40.40;;
16039;SDS011;8124;48.634;8.120;2024-01-30T20:59:20;49.15;;;41.10;;
16039;SDS011;8124;48.634;8.120;2024-01-30T21:04:23;50.90;;;41.60;;
16039;SDS011;8124;48.634;8.120;2024-01-30T21:09:28;52.45;;;41.28;;
16039;SDS011;8124;48.634;8.120;2024-01-30T21:14:31;53.05;;;43.70;;
16039;SDS011;8124;48.634;8.120;2024-01-30T21:19:34;54.58;;;42.75;;
16039;SDS011;8124;48.634;8.120;2024-01-30T21:24:38;52.78;;;43.28;;
16039;SDS011;8124;48.634;8.120;2024-01-30T21:29:42;53.10;;;42.42;;
16039;SDS011;8124;48.634;8.120;2024-01-30T21:34:45;51.20;;;42.60;;
16039;SDS011;8124;48.634;8.120;2024-01-30T21:39:49;56.40;;;43.05;;
16039;SDS011;8124;48.634;8.120;2024-01-30T21:44:53;51.63;;;42.75;;
16039;SDS011;8124;48.634;8.120;2024-01-30T21:49:56;55.45;;;42.53;;
16039;SDS011;8124;48.634;8.120;2024-01-30T21:55:00;54.35;;;43.55;;
16039;SDS011;8124;48.634;8.120;2024-01-30T22:00:04;49.58;;;41.08;;
16039;SDS011;8124;48.634;8.120;2024-01-30T22:05:09;51.20;;;40.90;;
16039;SDS011;8124;48.634;8.120;2024-01-30T22:10:13;51.55;;;41.08;;
16039;SDS011;8124;48.634;8.120;2024-01-30T22:15:17;54.00;;;42.72;;
16039;SDS011;8124;48.634;8.120;2024-01-30T22:20:20;50.25;;;41.85;;
16039;SDS011;8124;48.634;8.120;2024-01-30T22:25:24;53.53;;;41.88;;
16039;SDS011;8124;48.634;8.120;2024-01-30T22:30:27;52.55;;;41.53;;
16039;SDS011;8124;48.634;8.120;2024-01-30T22:35:30;48.28;;;40.05;;
16039;SDS011;8124;48.634;8.120;2024-01-30T22:40:35;48.75;;;40.72;;
16039;SDS011;8124;48.634;8.120;2024-01-30T22:45:38;50.17;;;40.67;;
16039;SDS011;8124;48.634;8.120;2024-01-30T22:50:41;49.92;;;41.10;;
16039;SDS011;8124;48.634;8.120;2024-01-30T22:55:45;49.53;;;40.17;;
16039;SDS011;8124;48.634;8.120;2024-01-30T23:00:48;54.85;;;44.78;;
16039;SDS011;8124;48.634;8.120;2024-01-30T23:05:51;46.80;;;40.03;;
16039;SDS011;8124;48.634;8.120;2024-01-30T23:10:56;51.13;;;41.08;;
16039;SDS011;8124;48.634;8.120;2024-01-30T23:15:58;45.97;;;38.90;;
16039;SDS011;8124;48.634;8.120;2024-01-30T23:21:01;47.92;;;39.20;;
16039;SDS011;8124;48.634;8.120;2024-01-30T23:26:06;46.67;;;38.75;;
16039;SDS011;8124;48.634;8.120;2024-01-30T23:31:09;48.08;;;39.90;;
16039;SDS011;8124;48.634;8.120;2024-01-30T23:36:12;44.92;;;37.28;;
16039;SDS011;8124;48.634;8.120;2024-01-30T23:41:17;45.30;;;37.67;;
16039;SDS011;8124;48.634;8.120;2024-01-30T23:46:20;45.13;;;37.53;;
16039;SDS011;8124;48.634;8.120;2024-01-30T23:51:23;43.30;;;36.38;;
16039;SDS011;8124;48.634;8.120;2024-01-30T23:56:27;41.90;;;36.45;;
